Wes Monica — V2GN6 — position and weather

sailwx.info

Track history (hours):
 
Tides and Currents Weather Stations Pressure Air Temp Water Temp Dewpoint Dewpoint Depression Visibility Wind Speed Wind Dir Waves Ship Positions

Wes Monica

Last reported at 2017-Sep-16 18:36 UTC. Time now 2017-Sep-25 06:32 UTC.
Position N 34°48' E 025°48'.
Warning: this ship's position is 8 days out of date.

Length 108 m; draft 5.7 m.

Type: Cargo ship. MMSI: 304014000.

Date/timePositionNaut miles runAvg speedWind from/ knotsBaromVisibWave heightAir tempDewpointWater temp
2017-Sep-16 18:36N 34°48' E 025°48'327 7.1
2017-Sep-14 20:19N 36°34' E 019°28'3 9.7
2017-Sep-14 19:59N 36°35' E 019°24'5 9.6
2017-Sep-14 19:30N 36°37' E 019°19'167 9.8
2017-Sep-14 02:28N 37°44' E 016°07'8 9.7
2017-Sep-14 01:41N 37°47' E 015°58'8 9.9
2017-Sep-14 00:51N 37°50' E 015°49'410.0
2017-Sep-14 00:30N 37°52' E 015°45'5 9.5
2017-Sep-13 23:57N 37°54' E 015°39'4 9.2
2017-Sep-13 23:29N 37°57' E 015°36'5 9.7
2017-Sep-13 23:00N 38°02' E 015°34'711.3
2017-Sep-13 22:25N 38°08' E 015°35'710.5
2017-Sep-13 21:48N 38°15' E 015°37'4 8.0
2017-Sep-13 21:15N 38°18' E 015°40'2 9.9
2017-Sep-13 21:00N 38°20' E 015°38'1610.0
2017-Sep-13 19:23N 38°32' E 015°24'378 9.3
2017-Sep-12 02:42N 43°02' E 009°35'2 7.5
2017-Sep-12 02:27N 43°04' E 009°34'3 6.9
2017-Sep-12 02:01N 43°06' E 009°32'4 7.2
2017-Sep-12 01:30N 43°10' E 009°30'4 7.4
2017-Sep-12 01:00N 43°13' E 009°27'4 7.9
2017-Sep-12 00:30N 43°16' E 009°24'4 7.7
2017-Sep-12 00:01N 43°19' E 009°21'4 7.4
2017-Sep-11 23:31N 43°22' E 009°19'4 7.6
2017-Sep-11 23:00N 43°26' E 009°16'4 8.1
2017-Sep-11 22:31N 43°29' E 009°13'4 8.7
2017-Sep-11 22:01N 43°33' E 009°10'5 9.1
2017-Sep-11 21:30N 43°37' E 009°07'4 8.9
2017-Sep-11 21:01N 43°41' E 009°04'5 9.0
2017-Sep-11 20:30N 43°44' E 009°00'5 9.1
2017-Sep-11 20:01N 43°48' E 008°57'5 9.3
2017-Sep-11 19:30N 43°52' E 008°54'5 9.6
2017-Sep-11 19:01N 43°56' E 008°50'5 9.8
2017-Sep-11 18:30N 44°01' E 008°47'5 9.9
2017-Sep-11 18:01N 44°05' E 008°43'5 9.9
2017-Sep-11 17:30N 44°09' E 008°40'5 9.9
2017-Sep-11 17:01N 44°13' E 008°36'510.0
2017-Sep-11 16:31N 44°18' E 008°32'2 4.1
2017-Sep-11 15:58N 44°19' E 008°30'0 0.0
2017-Sep-11 15:28N 44°19' E 008°30'0 0.0
2017-Sep-11 14:58N 44°19' E 008°30'0 0.0
2017-Sep-11 14:28N 44°19' E 008°30'0 0.0
2017-Sep-11 13:58N 44°19' E 008°30'0 0.0
2017-Sep-11 13:22N 44°19' E 008°30'0 0.0
2017-Sep-11 12:58N 44°19' E 008°30'0 0.0
2017-Sep-11 12:28N 44°19' E 008°30'0 0.0
2017-Sep-11 11:58N 44°19' E 008°30'0 0.0
2017-Sep-11 11:28N 44°19' E 008°30'0 0.0
2017-Sep-11 10:58N 44°19' E 008°30'0 0.0
2017-Sep-11 10:28N 44°19' E 008°30'0 0.0
2017-Sep-11 09:58N 44°19' E 008°30'0 0.0
2017-Sep-11 09:28N 44°19' E 008°30'0 0.0
2017-Sep-11 08:58N 44°19' E 008°30'0 0.0
2017-Sep-11 08:28N 44°19' E 008°30'0 0.0
2017-Sep-11 07:58N 44°19' E 008°30'0 0.0
2017-Sep-11 07:28N 44°19' E 008°30'0 0.0
2017-Sep-11 06:58N 44°19' E 008°30'0 0.0
2017-Sep-11 06:28N 44°19' E 008°30'0 0.0
2017-Sep-11 05:58N 44°19' E 008°30'0 0.0
2017-Sep-11 05:28N 44°19' E 008°30'0 0.0
2017-Sep-11 04:52N 44°19' E 008°30'0 0.0
2017-Sep-11 04:28N 44°19' E 008°30'0 0.0
2017-Sep-11 03:58N 44°19' E 008°30'0 0.0
2017-Sep-11 03:28N 44°19' E 008°30'0 0.0
2017-Sep-11 02:58N 44°19' E 008°30'0 0.0
2017-Sep-11 02:28N 44°19' E 008°30'0 0.0
2017-Sep-11 01:58N 44°19' E 008°30'0 0.0
2017-Sep-11 01:28N 44°19' E 008°30'0 0.0
2017-Sep-11 00:58N 44°19' E 008°30'0 0.0
2017-Sep-11 00:28N 44°19' E 008°30'0 0.0
2017-Sep-10 23:58N 44°19' E 008°30'0 0.0
2017-Sep-10 23:28N 44°19' E 008°30'0 0.0
2017-Sep-10 22:58N 44°19' E 008°30'0 0.0
2017-Sep-10 22:28N 44°19' E 008°30'0 0.0
2017-Sep-10 21:58N 44°19' E 008°30'0 0.0
2017-Sep-10 21:28N 44°19' E 008°30'0 0.0
2017-Sep-10 20:58N 44°19' E 008°30'0 0.0
2017-Sep-10 20:28N 44°19' E 008°30'0 0.0
2017-Sep-10 19:58N 44°19' E 008°30'0 0.0
2017-Sep-10 19:28N 44°19' E 008°30'0 0.0
2017-Sep-10 18:58N 44°19' E 008°30'0 0.0
2017-Sep-10 18:28N 44°19' E 008°30'0 0.0
2017-Sep-10 17:58N 44°19' E 008°30'0 0.0
2017-Sep-10 17:28N 44°19' E 008°30'0 0.0
2017-Sep-10 16:58N 44°19' E 008°30'0 0.0
2017-Sep-10 16:28N 44°19' E 008°30'0 0.0
2017-Sep-10 15:58N 44°19' E 008°30'0 0.0
2017-Sep-10 15:28N 44°19' E 008°30'0 0.0
2017-Sep-10 14:58N 44°19' E 008°30'0 0.0
2017-Sep-10 13:58N 44°19' E 008°30'0 0.0
2017-Sep-10 13:28N 44°19' E 008°30'0 0.0
2017-Sep-10 12:52N 44°19' E 008°30'0 0.0
2017-Sep-10 12:28N 44°19' E 008°30'0 0.0
2017-Sep-10 11:58N 44°19' E 008°30'0 0.0
2017-Sep-10 11:28N 44°19' E 008°30'0 0.0
2017-Sep-10 10:58N 44°19' E 008°30'0 0.0
2017-Sep-10 10:28N 44°19' E 008°30'0 0.0
2017-Sep-10 09:58N 44°19' E 008°30'0 0.0
2017-Sep-10 09:28N 44°19' E 008°30'0 0.0
2017-Sep-10 08:58N 44°19' E 008°30'0 0.0
2017-Sep-10 08:28N 44°19' E 008°30'0 0.0
2017-Sep-10 07:58N 44°19' E 008°30'0 0.0
2017-Sep-10 07:28N 44°19' E 008°30'0 0.0
2017-Sep-10 06:58N 44°19' E 008°30'0 0.0
2017-Sep-10 06:22N 44°19' E 008°30'0 0.0
2017-Sep-10 05:58N 44°19' E 008°30'0 0.0
2017-Sep-10 05:28N 44°19' E 008°30'0 0.0
2017-Sep-10 04:58N 44°19' E 008°30'0 0.0
2017-Sep-10 04:28N 44°19' E 008°30'0 0.0
2017-Sep-10 03:58N 44°19' E 008°30'0 0.0
2017-Sep-10 03:28N 44°19' E 008°30'0 0.0
2017-Sep-10 02:58N 44°19' E 008°30'0 0.0
2017-Sep-10 02:28N 44°19' E 008°30'0 0.0
2017-Sep-10 01:58N 44°19' E 008°30'0 0.0
2017-Sep-10 01:28N 44°19' E 008°30'0 0.0
2017-Sep-10 00:58N 44°19' E 008°30'0 0.0
2017-Sep-10 00:28N 44°19' E 008°30'0 0.0
2017-Sep-09 23:58N 44°19' E 008°30'0 0.0
2017-Sep-09 23:28N 44°19' E 008°30'0 0.0
2017-Sep-09 22:58N 44°19' E 008°30'0 0.0
2017-Sep-09 22:28N 44°19' E 008°30'0 0.0
2017-Sep-09 21:58N 44°19' E 008°30'0 0.0
2017-Sep-09 21:28N 44°19' E 008°30'0 0.0
2017-Sep-09 20:58N 44°19' E 008°30'0 0.0
2017-Sep-09 20:28N 44°19' E 008°30'0 0.0
2017-Sep-09 19:58N 44°19' E 008°30'0 0.0
2017-Sep-09 19:28N 44°19' E 008°30'0 0.0
2017-Sep-09 18:58N 44°19' E 008°30'0 0.0
2017-Sep-09 18:28N 44°19' E 008°30'0 0.0
2017-Sep-09 17:58N 44°19' E 008°30'0 0.0
2017-Sep-09 17:28N 44°19' E 008°30'0 0.0
2017-Sep-09 16:58N 44°19' E 008°30'0 0.0
2017-Sep-09 16:28N 44°19' E 008°30'0 0.0
2017-Sep-09 15:58N 44°19' E 008°30'0 0.0
2017-Sep-09 15:28N 44°19' E 008°30'0 0.0
2017-Sep-09 14:58N 44°19' E 008°30'0 0.0
2017-Sep-09 14:28N 44°19' E 008°30'0 0.0
2017-Sep-09 13:58N 44°19' E 008°30'0 0.0
2017-Sep-09 13:28N 44°19' E 008°30'0 0.0
2017-Sep-09 12:58N 44°19' E 008°30'0 0.0
2017-Sep-09 12:28N 44°19' E 008°30'0 0.0
2017-Sep-09 11:58N 44°19' E 008°30'0 0.0
2017-Sep-09 11:28N 44°19' E 008°30'0 0.0
2017-Sep-09 10:58N 44°19' E 008°30'0 0.0
2017-Sep-09 10:28N 44°19' E 008°30'0 0.0
2017-Sep-09 09:58N 44°19' E 008°30'0 0.0
2017-Sep-09 09:28N 44°19' E 008°30'0 0.0
2017-Sep-09 08:58N 44°19' E 008°30'0 0.0
2017-Sep-09 08:28N 44°19' E 008°30'0 0.0
2017-Sep-09 07:58N 44°19' E 008°30'0 0.0
2017-Sep-09 07:28N 44°19' E 008°30'0 0.0
2017-Sep-09 06:58N 44°19' E 008°30'0 0.0
2017-Sep-09 06:28N 44°19' E 008°30'0 0.0
2017-Sep-09 05:58N 44°19' E 008°30'0 0.0
2017-Sep-09 05:28N 44°19' E 008°30'0 0.0
2017-Sep-09 04:58N 44°19' E 008°30'0 0.0
2017-Sep-09 04:28N 44°19' E 008°30'0 0.0
2017-Sep-09 03:58N 44°19' E 008°30'0 0.0
2017-Sep-09 03:28N 44°19' E 008°30'0 0.0
2017-Sep-09 02:58N 44°19' E 008°30'0 0.0
2017-Sep-09 02:28N 44°19' E 008°30'0 0.0
2017-Sep-09 01:58N 44°19' E 008°30'0 0.0
2017-Sep-09 01:28N 44°19' E 008°30'0 0.0
2017-Sep-09 00:58N 44°19' E 008°30'0 0.0
2017-Sep-09 00:28N 44°19' E 008°30'0 0.0
2017-Sep-08 23:58N 44°19' E 008°30'0 0.0
2017-Sep-08 23:28N 44°19' E 008°30'0 0.0
2017-Sep-08 22:58N 44°19' E 008°30'0 0.0
2017-Sep-08 22:28N 44°19' E 008°30'0 0.0
2017-Sep-08 21:58N 44°19' E 008°30'0 0.0
2017-Sep-08 21:28N 44°19' E 008°30'0 0.0
2017-Sep-08 20:58N 44°19' E 008°30'0 0.0
2017-Sep-08 20:28N 44°19' E 008°30'0 0.0
2017-Sep-08 19:58N 44°19' E 008°30'0 0.0
2017-Sep-08 19:28N 44°19' E 008°30'0 0.0
2017-Sep-08 18:52N 44°19' E 008°30'0 0.0
2017-Sep-08 18:28N 44°19' E 008°30'0 0.0
2017-Sep-08 17:58N 44°19' E 008°30'0 0.0
2017-Sep-08 17:28N 44°19' E 008°30'0 0.0
2017-Sep-08 16:58N 44°19' E 008°30'0 0.0
2017-Sep-08 16:28N 44°19' E 008°30'0 0.0
2017-Sep-08 15:58N 44°19' E 008°30'0 0.0
2017-Sep-08 15:28N 44°19' E 008°30'0 0.0
2017-Sep-08 14:58N 44°19' E 008°30'0 0.0
2017-Sep-08 14:28N 44°19' E 008°30'0 0.0
2017-Sep-08 13:58N 44°19' E 008°30'0 0.0
2017-Sep-08 13:28N 44°19' E 008°30'0 0.0
2017-Sep-08 12:58N 44°19' E 008°30'0 0.0
2017-Sep-08 12:28N 44°19' E 008°30'0 0.0
2017-Sep-08 11:58N 44°19' E 008°30'0 0.0
2017-Sep-08 11:28N 44°19' E 008°30'0 0.0
2017-Sep-08 10:58N 44°19' E 008°30'0 0.0
2017-Sep-08 10:28N 44°19' E 008°30'0 0.0
2017-Sep-08 09:58N 44°19' E 008°30'0 0.0
2017-Sep-08 09:28N 44°19' E 008°30'0 0.0
2017-Sep-08 08:58N 44°19' E 008°30'0 0.0
2017-Sep-08 08:28N 44°19' E 008°30'0 0.0
2017-Sep-08 07:58N 44°19' E 008°30'0 0.0
2017-Sep-08 07:28N 44°19' E 008°30'0 0.0
2017-Sep-08 06:58N 44°19' E 008°30'0 0.0
2017-Sep-08 06:28N 44°19' E 008°30'0 0.0
2017-Sep-08 05:58N 44°19' E 008°30'0 0.0
2017-Sep-08 05:28N 44°19' E 008°30'0 0.0
2017-Sep-08 04:52N 44°19' E 008°30'0 0.0
2017-Sep-08 04:10N 44°19' E 008°30'0 0.0
2017-Sep-08 03:58N 44°19' E 008°30'0 0.0
2017-Sep-08 03:28N 44°19' E 008°30'0 0.0
2017-Sep-08 02:55N 44°19' E 008°30'0 0.0
2017-Sep-08 02:22N 44°19' E 008°30'0 0.0
2017-Sep-08 01:58N 44°19' E 008°30'0 0.0
2017-Sep-08 01:22N 44°19' E 008°30'0 0.0
2017-Sep-08 00:58N 44°19' E 008°30'0 0.0
2017-Sep-08 00:22N 44°19' E 008°30'0 0.0
2017-Sep-07 23:58N 44°19' E 008°30'0 0.0
2017-Sep-07 23:28N 44°19' E 008°30'0 0.0
2017-Sep-07 22:58N 44°19' E 008°30'0 0.0
2017-Sep-07 22:28N 44°19' E 008°30'0 0.0
2017-Sep-07 21:58N 44°19' E 008°30'0 0.0
2017-Sep-07 21:28N 44°19' E 008°30'0 0.0
2017-Sep-07 20:58N 44°19' E 008°30'0 0.0
2017-Sep-07 20:28N 44°19' E 008°30'0 0.0
2017-Sep-07 19:58N 44°19' E 008°30'0 0.0
2017-Sep-07 19:28N 44°19' E 008°30'0 0.0
2017-Sep-07 18:58N 44°19' E 008°30'0 0.0
2017-Sep-07 18:28N 44°19' E 008°30'0 0.0
2017-Sep-07 17:58N 44°19' E 008°30'0 0.0
2017-Sep-07 17:19N 44°19' E 008°30'0 0.0
2017-Sep-07 16:58N 44°19' E 008°30'0 0.0
2017-Sep-07 16:28N 44°19' E 008°30'0 0.0
2017-Sep-07 15:52N 44°19' E 008°30'0 0.0
2017-Sep-07 15:22N 44°19' E 008°30'0 0.0
2017-Sep-07 14:58N 44°19' E 008°30'0 0.0
2017-Sep-07 14:22N 44°19' E 008°30'0 0.0
2017-Sep-07 13:58N 44°19' E 008°30'0 0.0
2017-Sep-07 13:25N 44°19' E 008°30'0 0.0
2017-Sep-07 12:58N 44°19' E 008°30'0 0.0
2017-Sep-07 12:28N 44°19' E 008°30'0 0.0
2017-Sep-07 11:58N 44°19' E 008°30'0 0.0
2017-Sep-07 11:28N 44°19' E 008°30'0 0.0
2017-Sep-07 10:58N 44°19' E 008°30'0 0.0
2017-Sep-07 10:25N 44°19' E 008°30'0 0.0
2017-Sep-07 09:58N 44°19' E 008°30'0 0.0
2017-Sep-07 09:28N 44°19' E 008°30'0 0.0
2017-Sep-07 08:58N 44°19' E 008°30'0 0.0
2017-Sep-07 08:28N 44°19' E 008°30'0 0.0
2017-Sep-07 07:58N 44°19' E 008°30'0 0.0
2017-Sep-07 07:28N 44°19' E 008°30'0 0.0
2017-Sep-07 06:58N 44°19' E 008°30'0 0.0
2017-Sep-07 06:28N 44°19' E 008°30'0 0.0
2017-Sep-07 05:58N 44°19' E 008°30'0 0.0
2017-Sep-07 05:28N 44°19' E 008°30'0 0.0
2017-Sep-07 04:58N 44°19' E 008°30'0 0.0
2017-Sep-07 04:28N 44°19' E 008°30'0 0.0
2017-Sep-07 03:58N 44°19' E 008°30'0 0.0
2017-Sep-07 03:28N 44°19' E 008°30'0 0.0
2017-Sep-07 02:58N 44°19' E 008°30'0 0.0
2017-Sep-07 02:28N 44°19' E 008°30'0 0.0
2017-Sep-07 01:52N 44°19' E 008°30'0 0.0
2017-Sep-07 01:28N 44°19' E 008°30'0 0.0
2017-Sep-07 00:58N 44°19' E 008°30'0 0.0
2017-Sep-07 00:28N 44°19' E 008°30'0 0.0
2017-Sep-06 23:58N 44°19' E 008°30'0 0.0
2017-Sep-06 23:28N 44°19' E 008°30'0 0.0
2017-Sep-06 22:58N 44°19' E 008°30'0 0.0
2017-Sep-06 22:28N 44°19' E 008°30'0 0.0
2017-Sep-06 21:58N 44°19' E 008°30'0 0.0
2017-Sep-06 21:28N 44°19' E 008°30'0 0.0
2017-Sep-06 20:58N 44°19' E 008°30'0 0.0
2017-Sep-06 20:28N 44°19' E 008°30'0 0.0
2017-Sep-06 19:58N 44°19' E 008°30'0 0.0
2017-Sep-06 19:28N 44°19' E 008°30'0 0.0
2017-Sep-06 18:58N 44°19' E 008°30'  
Track history (hours):
 
Tides and Currents Weather Stations Pressure Air Temp Water Temp Dewpoint Dewpoint Depression Visibility Wind Speed Wind Dir Waves Ship Positions

Wes Monica

Last reported at 2017-Sep-16 18:36 UTC. Time now 2017-Sep-25 06:32 UTC.
Position N 34°48' E 025°48'.
Warning: this ship's position is 8 days out of date.

Length 108 m; draft 5.7 m.

Type: Cargo ship. MMSI: 304014000.

Date/timePositionNaut miles runAvg speedWind from/ knotsBaromVisibWave heightAir tempDewpointWater temp
2017-Sep-16 18:36N 34°48' E 025°48'327 7.1
2017-Sep-14 20:19N 36°34' E 019°28'3 9.7
2017-Sep-14 19:59N 36°35' E 019°24'5 9.6
2017-Sep-14 19:30N 36°37' E 019°19'167 9.8
2017-Sep-14 02:28N 37°44' E 016°07'8 9.7
2017-Sep-14 01:41N 37°47' E 015°58'8 9.9
2017-Sep-14 00:51N 37°50' E 015°49'410.0
2017-Sep-14 00:30N 37°52' E 015°45'5 9.5
2017-Sep-13 23:57N 37°54' E 015°39'4 9.2
2017-Sep-13 23:29N 37°57' E 015°36'5 9.7
2017-Sep-13 23:00N 38°02' E 015°34'711.3
2017-Sep-13 22:25N 38°08' E 015°35'710.5
2017-Sep-13 21:48N 38°15' E 015°37'4 8.0
2017-Sep-13 21:15N 38°18' E 015°40'2 9.9
2017-Sep-13 21:00N 38°20' E 015°38'1610.0
2017-Sep-13 19:23N 38°32' E 015°24'378 9.3
2017-Sep-12 02:42N 43°02' E 009°35'2 7.5
2017-Sep-12 02:27N 43°04' E 009°34'3 6.9
2017-Sep-12 02:01N 43°06' E 009°32'4 7.2
2017-Sep-12 01:30N 43°10' E 009°30'4 7.4
2017-Sep-12 01:00N 43°13' E 009°27'4 7.9
2017-Sep-12 00:30N 43°16' E 009°24'4 7.7
2017-Sep-12 00:01N 43°19' E 009°21'4 7.4
2017-Sep-11 23:31N 43°22' E 009°19'4 7.6
2017-Sep-11 23:00N 43°26' E 009°16'4 8.1
2017-Sep-11 22:31N 43°29' E 009°13'4 8.7
2017-Sep-11 22:01N 43°33' E 009°10'5 9.1
2017-Sep-11 21:30N 43°37' E 009°07'4 8.9
2017-Sep-11 21:01N 43°41' E 009°04'5 9.0
2017-Sep-11 20:30N 43°44' E 009°00'5 9.1
2017-Sep-11 20:01N 43°48' E 008°57'5 9.3
2017-Sep-11 19:30N 43°52' E 008°54'5 9.6
2017-Sep-11 19:01N 43°56' E 008°50'5 9.8
2017-Sep-11 18:30N 44°01' E 008°47'5 9.9
2017-Sep-11 18:01N 44°05' E 008°43'5 9.9
2017-Sep-11 17:30N 44°09' E 008°40'5 9.9
2017-Sep-11 17:01N 44°13' E 008°36'510.0
2017-Sep-11 16:31N 44°18' E 008°32'2 4.1
2017-Sep-11 15:58N 44°19' E 008°30'0 0.0
2017-Sep-11 15:28N 44°19' E 008°30'0 0.0
2017-Sep-11 14:58N 44°19' E 008°30'0 0.0
2017-Sep-11 14:28N 44°19' E 008°30'0 0.0
2017-Sep-11 13:58N 44°19' E 008°30'0 0.0
2017-Sep-11 13:22N 44°19' E 008°30'0 0.0
2017-Sep-11 12:58N 44°19' E 008°30'0 0.0
2017-Sep-11 12:28N 44°19' E 008°30'0 0.0
2017-Sep-11 11:58N 44°19' E 008°30'0 0.0
2017-Sep-11 11:28N 44°19' E 008°30'0 0.0
2017-Sep-11 10:58N 44°19' E 008°30'0 0.0
2017-Sep-11 10:28N 44°19' E 008°30'0 0.0
2017-Sep-11 09:58N 44°19' E 008°30'0 0.0
2017-Sep-11 09:28N 44°19' E 008°30'0 0.0
2017-Sep-11 08:58N 44°19' E 008°30'0 0.0
2017-Sep-11 08:28N 44°19' E 008°30'0 0.0
2017-Sep-11 07:58N 44°19' E 008°30'0 0.0
2017-Sep-11 07:28N 44°19' E 008°30'0 0.0
2017-Sep-11 06:58N 44°19' E 008°30'0 0.0
2017-Sep-11 06:28N 44°19' E 008°30'0 0.0
2017-Sep-11 05:58N 44°19' E 008°30'0 0.0
2017-Sep-11 05:28N 44°19' E 008°30'0 0.0
2017-Sep-11 04:52N 44°19' E 008°30'0 0.0
2017-Sep-11 04:28N 44°19' E 008°30'0 0.0
2017-Sep-11 03:58N 44°19' E 008°30'0 0.0
2017-Sep-11 03:28N 44°19' E 008°30'0 0.0
2017-Sep-11 02:58N 44°19' E 008°30'0 0.0
2017-Sep-11 02:28N 44°19' E 008°30'0 0.0
2017-Sep-11 01:58N 44°19' E 008°30'0 0.0
2017-Sep-11 01:28N 44°19' E 008°30'0 0.0
2017-Sep-11 00:58N 44°19' E 008°30'0 0.0
2017-Sep-11 00:28N 44°19' E 008°30'0 0.0
2017-Sep-10 23:58N 44°19' E 008°30'0 0.0
2017-Sep-10 23:28N 44°19' E 008°30'0 0.0
2017-Sep-10 22:58N 44°19' E 008°30'0 0.0
2017-Sep-10 22:28N 44°19' E 008°30'0 0.0
2017-Sep-10 21:58N 44°19' E 008°30'0 0.0
2017-Sep-10 21:28N 44°19' E 008°30'0 0.0
2017-Sep-10 20:58N 44°19' E 008°30'0 0.0
2017-Sep-10 20:28N 44°19' E 008°30'0 0.0
2017-Sep-10 19:58N 44°19' E 008°30'0 0.0
2017-Sep-10 19:28N 44°19' E 008°30'0 0.0
2017-Sep-10 18:58N 44°19' E 008°30'0 0.0
2017-Sep-10 18:28N 44°19' E 008°30'0 0.0
2017-Sep-10 17:58N 44°19' E 008°30'0 0.0
2017-Sep-10 17:28N 44°19' E 008°30'0 0.0
2017-Sep-10 16:58N 44°19' E 008°30'0 0.0
2017-Sep-10 16:28N 44°19' E 008°30'0 0.0
2017-Sep-10 15:58N 44°19' E 008°30'0 0.0
2017-Sep-10 15:28N 44°19' E 008°30'0 0.0
2017-Sep-10 14:58N 44°19' E 008°30'0 0.0
2017-Sep-10 13:58N 44°19' E 008°30'0 0.0
2017-Sep-10 13:28N 44°19' E 008°30'0 0.0
2017-Sep-10 12:52N 44°19' E 008°30'0 0.0
2017-Sep-10 12:28N 44°19' E 008°30'0 0.0
2017-Sep-10 11:58N 44°19' E 008°30'0 0.0
2017-Sep-10 11:28N 44°19' E 008°30'0 0.0
2017-Sep-10 10:58N 44°19' E 008°30'0 0.0
2017-Sep-10 10:28N 44°19' E 008°30'0 0.0
2017-Sep-10 09:58N 44°19' E 008°30'0 0.0
2017-Sep-10 09:28N 44°19' E 008°30'0 0.0
2017-Sep-10 08:58N 44°19' E 008°30'0 0.0
2017-Sep-10 08:28N 44°19' E 008°30'0 0.0
2017-Sep-10 07:58N 44°19' E 008°30'0 0.0
2017-Sep-10 07:28N 44°19' E 008°30'0 0.0
2017-Sep-10 06:58N 44°19' E 008°30'0 0.0
2017-Sep-10 06:22N 44°19' E 008°30'0 0.0
2017-Sep-10 05:58N 44°19' E 008°30'0 0.0
2017-Sep-10 05:28N 44°19' E 008°30'0 0.0
2017-Sep-10 04:58N 44°19' E 008°30'0 0.0
2017-Sep-10 04:28N 44°19' E 008°30'0 0.0
2017-Sep-10 03:58N 44°19' E 008°30'0 0.0
2017-Sep-10 03:28N 44°19' E 008°30'0 0.0
2017-Sep-10 02:58N 44°19' E 008°30'0 0.0
2017-Sep-10 02:28N 44°19' E 008°30'0 0.0
2017-Sep-10 01:58N 44°19' E 008°30'0 0.0
2017-Sep-10 01:28N 44°19' E 008°30'0 0.0
2017-Sep-10 00:58N 44°19' E 008°30'0 0.0
2017-Sep-10 00:28N 44°19' E 008°30'0 0.0
2017-Sep-09 23:58N 44°19' E 008°30'0 0.0
2017-Sep-09 23:28N 44°19' E 008°30'0 0.0
2017-Sep-09 22:58N 44°19' E 008°30'0 0.0
2017-Sep-09 22:28N 44°19' E 008°30'0 0.0
2017-Sep-09 21:58N 44°19' E 008°30'0 0.0
2017-Sep-09 21:28N 44°19' E 008°30'0 0.0
2017-Sep-09 20:58N 44°19' E 008°30'0 0.0
2017-Sep-09 20:28N 44°19' E 008°30'0 0.0
2017-Sep-09 19:58N 44°19' E 008°30'0 0.0
2017-Sep-09 19:28N 44°19' E 008°30'0 0.0
2017-Sep-09 18:58N 44°19' E 008°30'0 0.0
2017-Sep-09 18:28N 44°19' E 008°30'0 0.0
2017-Sep-09 17:58N 44°19' E 008°30'0 0.0
2017-Sep-09 17:28N 44°19' E 008°30'0 0.0
2017-Sep-09 16:58N 44°19' E 008°30'0 0.0
2017-Sep-09 16:28N 44°19' E 008°30'0 0.0
2017-Sep-09 15:58N 44°19' E 008°30'0 0.0
2017-Sep-09 15:28N 44°19' E 008°30'0 0.0
2017-Sep-09 14:58N 44°19' E 008°30'0 0.0
2017-Sep-09 14:28N 44°19' E 008°30'0 0.0
2017-Sep-09 13:58N 44°19' E 008°30'0 0.0
2017-Sep-09 13:28N 44°19' E 008°30'0 0.0
2017-Sep-09 12:58N 44°19' E 008°30'0 0.0
2017-Sep-09 12:28N 44°19' E 008°30'0 0.0
2017-Sep-09 11:58N 44°19' E 008°30'0 0.0
2017-Sep-09 11:28N 44°19' E 008°30'0 0.0
2017-Sep-09 10:58N 44°19' E 008°30'0 0.0
2017-Sep-09 10:28N 44°19' E 008°30'0 0.0
2017-Sep-09 09:58N 44°19' E 008°30'0 0.0
2017-Sep-09 09:28N 44°19' E 008°30'0 0.0
2017-Sep-09 08:58N 44°19' E 008°30'0 0.0
2017-Sep-09 08:28N 44°19' E 008°30'0 0.0
2017-Sep-09 07:58N 44°19' E 008°30'0 0.0
2017-Sep-09 07:28N 44°19' E 008°30'0 0.0
2017-Sep-09 06:58N 44°19' E 008°30'0 0.0
2017-Sep-09 06:28N 44°19' E 008°30'0 0.0
2017-Sep-09 05:58N 44°19' E 008°30'0 0.0
2017-Sep-09 05:28N 44°19' E 008°30'0 0.0
2017-Sep-09 04:58N 44°19' E 008°30'0 0.0
2017-Sep-09 04:28N 44°19' E 008°30'0 0.0
2017-Sep-09 03:58N 44°19' E 008°30'0 0.0
2017-Sep-09 03:28N 44°19' E 008°30'0 0.0
2017-Sep-09 02:58N 44°19' E 008°30'0 0.0
2017-Sep-09 02:28N 44°19' E 008°30'0 0.0
2017-Sep-09 01:58N 44°19' E 008°30'0 0.0
2017-Sep-09 01:28N 44°19' E 008°30'0 0.0
2017-Sep-09 00:58N 44°19' E 008°30'0 0.0
2017-Sep-09 00:28N 44°19' E 008°30'0 0.0
2017-Sep-08 23:58N 44°19' E 008°30'0 0.0
2017-Sep-08 23:28N 44°19' E 008°30'0 0.0
2017-Sep-08 22:58N 44°19' E 008°30'0 0.0
2017-Sep-08 22:28N 44°19' E 008°30'0 0.0
2017-Sep-08 21:58N 44°19' E 008°30'0 0.0
2017-Sep-08 21:28N 44°19' E 008°30'0 0.0
2017-Sep-08 20:58N 44°19' E 008°30'0 0.0
2017-Sep-08 20:28N 44°19' E 008°30'0 0.0
2017-Sep-08 19:58N 44°19' E 008°30'0 0.0
2017-Sep-08 19:28N 44°19' E 008°30'0 0.0
2017-Sep-08 18:52N 44°19' E 008°30'0 0.0
2017-Sep-08 18:28N 44°19' E 008°30'0 0.0
2017-Sep-08 17:58N 44°19' E 008°30'0 0.0
2017-Sep-08 17:28N 44°19' E 008°30'0 0.0
2017-Sep-08 16:58N 44°19' E 008°30'0 0.0
2017-Sep-08 16:28N 44°19' E 008°30'0 0.0
2017-Sep-08 15:58N 44°19' E 008°30'0 0.0
2017-Sep-08 15:28N 44°19' E 008°30'0 0.0
2017-Sep-08 14:58N 44°19' E 008°30'0 0.0
2017-Sep-08 14:28N 44°19' E 008°30'0 0.0
2017-Sep-08 13:58N 44°19' E 008°30'0 0.0
2017-Sep-08 13:28N 44°19' E 008°30'0 0.0
2017-Sep-08 12:58N 44°19' E 008°30'0 0.0
2017-Sep-08 12:28N 44°19' E 008°30'0 0.0
2017-Sep-08 11:58N 44°19' E 008°30'0 0.0
2017-Sep-08 11:28N 44°19' E 008°30'0 0.0
2017-Sep-08 10:58N 44°19' E 008°30'0 0.0
2017-Sep-08 10:28N 44°19' E 008°30'0 0.0
2017-Sep-08 09:58N 44°19' E 008°30'0 0.0
2017-Sep-08 09:28N 44°19' E 008°30'0 0.0
2017-Sep-08 08:58N 44°19' E 008°30'0 0.0
2017-Sep-08 08:28N 44°19' E 008°30'0 0.0
2017-Sep-08 07:58N 44°19' E 008°30'0 0.0
2017-Sep-08 07:28N 44°19' E 008°30'0 0.0
2017-Sep-08 06:58N 44°19' E 008°30'0 0.0
2017-Sep-08 06:28N 44°19' E 008°30'0 0.0
2017-Sep-08 05:58N 44°19' E 008°30'0 0.0
2017-Sep-08 05:28N 44°19' E 008°30'0 0.0
2017-Sep-08 04:52N 44°19' E 008°30'0 0.0
2017-Sep-08 04:10N 44°19' E 008°30'0 0.0
2017-Sep-08 03:58N 44°19' E 008°30'0 0.0
2017-Sep-08 03:28N 44°19' E 008°30'0 0.0
2017-Sep-08 02:55N 44°19' E 008°30'0 0.0
2017-Sep-08 02:22N 44°19' E 008°30'0 0.0
2017-Sep-08 01:58N 44°19' E 008°30'0 0.0
2017-Sep-08 01:22N 44°19' E 008°30'0 0.0
2017-Sep-08 00:58N 44°19' E 008°30'0 0.0
2017-Sep-08 00:22N 44°19' E 008°30'0 0.0
2017-Sep-07 23:58N 44°19' E 008°30'0 0.0
2017-Sep-07 23:28N 44°19' E 008°30'0 0.0
2017-Sep-07 22:58N 44°19' E 008°30'0 0.0
2017-Sep-07 22:28N 44°19' E 008°30'0 0.0
2017-Sep-07 21:58N 44°19' E 008°30'0 0.0
2017-Sep-07 21:28N 44°19' E 008°30'0 0.0
2017-Sep-07 20:58N 44°19' E 008°30'0 0.0
2017-Sep-07 20:28N 44°19' E 008°30'0 0.0
2017-Sep-07 19:58N 44°19' E 008°30'0 0.0
2017-Sep-07 19:28N 44°19' E 008°30'0 0.0
2017-Sep-07 18:58N 44°19' E 008°30'0 0.0
2017-Sep-07 18:28N 44°19' E 008°30'0 0.0
2017-Sep-07 17:58N 44°19' E 008°30'0 0.0
2017-Sep-07 17:19N 44°19' E 008°30'0 0.0
2017-Sep-07 16:58N 44°19' E 008°30'0 0.0
2017-Sep-07 16:28N 44°19' E 008°30'0 0.0
2017-Sep-07 15:52N 44°19' E 008°30'0 0.0
2017-Sep-07 15:22N 44°19' E 008°30'0 0.0
2017-Sep-07 14:58N 44°19' E 008°30'0 0.0
2017-Sep-07 14:22N 44°19' E 008°30'0 0.0
2017-Sep-07 13:58N 44°19' E 008°30'0 0.0
2017-Sep-07 13:25N 44°19' E 008°30'0 0.0
2017-Sep-07 12:58N 44°19' E 008°30'0 0.0
2017-Sep-07 12:28N 44°19' E 008°30'0 0.0
2017-Sep-07 11:58N 44°19' E 008°30'0 0.0
2017-Sep-07 11:28N 44°19' E 008°30'0 0.0
2017-Sep-07 10:58N 44°19' E 008°30'0 0.0
2017-Sep-07 10:25N 44°19' E 008°30'0 0.0
2017-Sep-07 09:58N 44°19' E 008°30'0 0.0
2017-Sep-07 09:28N 44°19' E 008°30'0 0.0
2017-Sep-07 08:58N 44°19' E 008°30'0 0.0
2017-Sep-07 08:28N 44°19' E 008°30'0 0.0
2017-Sep-07 07:58N 44°19' E 008°30'0 0.0
2017-Sep-07 07:28N 44°19' E 008°30'0 0.0
2017-Sep-07 06:58N 44°19' E 008°30'0 0.0
2017-Sep-07 06:28N 44°19' E 008°30'0 0.0
2017-Sep-07 05:58N 44°19' E 008°30'0 0.0
2017-Sep-07 05:28N 44°19' E 008°30'0 0.0
2017-Sep-07 04:58N 44°19' E 008°30'0 0.0
2017-Sep-07 04:28N 44°19' E 008°30'0 0.0
2017-Sep-07 03:58N 44°19' E 008°30'0 0.0
2017-Sep-07 03:28N 44°19' E 008°30'0 0.0
2017-Sep-07 02:58N 44°19' E 008°30'0 0.0
2017-Sep-07 02:28N 44°19' E 008°30'0 0.0
2017-Sep-07 01:52N 44°19' E 008°30'0 0.0
2017-Sep-07 01:28N 44°19' E 008°30'0 0.0
2017-Sep-07 00:58N 44°19' E 008°30'0 0.0
2017-Sep-07 00:28N 44°19' E 008°30'0 0.0
2017-Sep-06 23:58N 44°19' E 008°30'0 0.0
2017-Sep-06 23:28N 44°19' E 008°30'0 0.0
2017-Sep-06 22:58N 44°19' E 008°30'0 0.0
2017-Sep-06 22:28N 44°19' E 008°30'0 0.0
2017-Sep-06 21:58N 44°19' E 008°30'0 0.0
2017-Sep-06 21:28N 44°19' E 008°30'0 0.0
2017-Sep-06 20:58N 44°19' E 008°30'0 0.0
2017-Sep-06 20:28N 44°19' E 008°30'0 0.0
2017-Sep-06 19:58N 44°19' E 008°30'0 0.0
2017-Sep-06 19:28N 44°19' E 008°30'0 0.0
2017-Sep-06 18:58N 44°19' E 008°30'  

Dump ship's entire track history